createdAt,value
2018-09-17T00:01:43.687Z,14.10
2018-09-17T00:06:47.026Z,14.10
2018-09-17T00:11:50.221Z,14.00
2018-09-17T00:16:53.401Z,13.90
2018-09-17T00:21:56.597Z,14.00
2018-09-17T00:26:59.799Z,14.00
2018-09-17T00:32:02.970Z,13.70
2018-09-17T00:37:06.142Z,13.70
2018-09-17T00:42:09.314Z,13.80
2018-09-17T00:47:12.499Z,13.50
2018-09-17T00:52:15.674Z,13.60
2018-09-17T00:57:18.861Z,13.40
2018-09-17T01:02:22.031Z,13.40
2018-09-17T01:07:25.201Z,13.40
2018-09-17T01:12:28.369Z,13.30
2018-09-17T01:17:31.565Z,13.20
2018-09-17T01:22:34.802Z,13.20
2018-09-17T01:27:37.967Z,13.20
2018-09-17T01:32:41.150Z,13.10
2018-09-17T01:37:44.312Z,13.10
2018-09-17T01:42:47.521Z,13.10
2018-09-17T01:47:50.686Z,13.00
2018-09-17T01:52:53.867Z,13.00
2018-09-17T01:57:57.025Z,13.00
2018-09-17T02:03:00.525Z,12.90
2018-09-17T02:08:03.747Z,12.80
2018-09-17T02:13:06.940Z,12.70
2018-09-17T02:18:10.157Z,12.80
2018-09-17T02:23:13.344Z,12.60
2018-09-17T02:28:16.525Z,12.70
2018-09-17T02:33:19.694Z,12.60
2018-09-17T02:38:22.883Z,12.50
2018-09-17T02:43:26.096Z,12.70
2018-09-17T02:48:29.678Z,12.60
2018-09-17T02:53:32.903Z,12.60
2018-09-17T02:58:36.086Z,12.70
2018-09-17T03:03:39.259Z,12.60
2018-09-17T03:08:42.435Z,12.60
2018-09-17T03:13:45.603Z,12.70
2018-09-17T03:18:51.271Z,12.60
2018-09-17T03:23:54.677Z,12.50
2018-09-17T03:28:57.888Z,12.50
2018-09-17T03:34:01.057Z,12.50
2018-09-17T03:39:05.180Z,12.40
2018-09-17T03:44:08.358Z,12.50
2018-09-17T03:49:11.537Z,12.50
2018-09-17T03:54:14.702Z,12.30
2018-09-17T03:59:17.873Z,12.30
2018-09-17T04:04:21.513Z,12.20
2018-09-17T04:09:24.691Z,12.20
2018-09-17T04:14:27.863Z,12.20
2018-09-17T04:19:31.026Z,12.20
2018-09-17T04:24:34.210Z,12.10
2018-09-17T04:29:37.366Z,12.20
2018-09-17T04:34:40.524Z,12.00
2018-09-17T04:39:43.788Z,12.10
2018-09-17T04:44:46.933Z,12.00
2018-09-17T04:49:50.102Z,12.10
2018-09-17T04:54:53.318Z,12.10
2018-09-17T04:59:56.531Z,12.20
2018-09-17T05:04:59.711Z,12.20
2018-09-17T05:10:03.003Z,12.20
2018-09-17T05:15:06.546Z,12.20
2018-09-17T05:20:09.741Z,12.20
2018-09-17T05:25:12.945Z,12.10
2018-09-17T05:30:16.118Z,12.20
2018-09-17T05:35:21.037Z,12.20
2018-09-17T05:40:24.290Z,12.30
2018-09-17T05:45:27.506Z,12.30
2018-09-17T05:50:30.673Z,12.30
2018-09-17T05:55:33.947Z,12.40
2018-09-17T06:00:37.148Z,12.50
2018-09-17T06:05:40.379Z,12.60
2018-09-17T06:10:43.497Z,12.70
2018-09-17T06:15:46.687Z,12.70
2018-09-17T06:20:49.882Z,12.80
2018-09-17T06:25:53.039Z,12.90
2018-09-17T06:30:56.314Z,13.00
2018-09-17T06:35:59.478Z,13.10
2018-09-17T06:41:02.643Z,13.20
2018-09-17T06:46:05.876Z,13.20
2018-09-17T06:51:09.057Z,13.40
2018-09-17T06:56:12.237Z,13.40
2018-09-17T07:01:15.472Z,13.60
2018-09-17T07:06:18.709Z,13.70
2018-09-17T07:11:21.894Z,13.90
2018-09-17T07:16:25.091Z,14.00
2018-09-17T07:21:28.241Z,14.30
2018-09-17T07:26:31.598Z,14.70
2018-09-17T07:31:34.800Z,15.00
2018-09-17T07:36:38.010Z,15.30
2018-09-17T07:41:41.182Z,15.50
2018-09-17T07:46:44.897Z,15.60
2018-09-17T07:51:48.062Z,15.80
2018-09-17T07:56:51.289Z,16.00
2018-09-17T08:01:54.486Z,16.20
2018-09-17T08:06:57.669Z,16.50
2018-09-17T08:12:00.849Z,16.90
2018-09-17T08:17:04.232Z,17.40
2018-09-17T08:22:07.423Z,17.70
2018-09-17T08:27:10.582Z,18.10
2018-09-17T08:32:13.765Z,18.50
2018-09-17T08:37:16.972Z,18.70
2018-09-17T08:42:20.141Z,19.00
2018-09-17T08:47:23.330Z,19.00
2018-09-17T08:52:26.523Z,18.90
2018-09-17T08:57:35.972Z,19.20
2018-09-17T09:02:43.860Z,19.40
2018-09-17T09:07:54.325Z,19.60
2018-09-17T09:13:03.014Z,19.70
2018-09-17T09:18:07.597Z,19.70
2018-09-17T09:23:10.789Z,19.80
2018-09-17T09:28:14.054Z,19.90
2018-09-17T09:33:17.229Z,20.20
2018-09-17T09:38:20.480Z,20.60
2018-09-17T09:43:23.722Z,20.80
2018-09-17T09:48:26.890Z,20.90
2018-09-17T09:53:30.154Z,20.80
2018-09-17T09:58:33.313Z,20.80
2018-09-17T10:03:42.506Z,20.70
2018-09-17T10:08:51.076Z,21.00
2018-09-17T10:13:59.711Z,21.30
2018-09-17T10:19:09.398Z,21.40
2018-09-17T10:24:12.589Z,21.40
2018-09-17T10:29:16.099Z,21.50
2018-09-17T10:34:19.289Z,21.70
2018-09-17T10:39:22.485Z,21.90
2018-09-17T10:44:25.674Z,21.80
2018-09-17T10:49:28.902Z,21.90
2018-09-17T10:54:32.069Z,21.90
2018-09-17T10:59:35.520Z,22.10
2018-09-17T11:04:39.006Z,22.10
2018-09-17T11:09:42.152Z,22.30
2018-09-17T11:14:45.331Z,22.40
2018-09-17T11:19:49.322Z,22.50
2018-09-17T11:24:52.672Z,22.50
2018-09-17T11:29:55.851Z,22.50
2018-09-17T11:34:59.205Z,22.60
2018-09-17T11:40:02.378Z,22.80
2018-09-17T11:45:05.553Z,22.80
2018-09-17T11:50:11.930Z,22.90
2018-09-17T11:55:18.433Z,23.10
2018-09-17T12:00:27.035Z,23.10
2018-09-17T12:05:39.294Z,23.10
2018-09-17T12:10:42.841Z,23.20
2018-09-17T12:15:46.018Z,23.60
2018-09-17T12:20:49.206Z,23.60
2018-09-17T12:25:52.484Z,23.60
2018-09-17T12:30:55.838Z,23.80
2018-09-17T12:35:59.158Z,24.00
2018-09-17T12:41:02.333Z,24.10
2018-09-17T12:46:05.623Z,24.10
2018-09-17T12:51:08.766Z,24.10
2018-09-17T12:56:12.004Z,24.20
2018-09-17T13:01:15.174Z,24.20
2018-09-17T13:06:18.456Z,24.20
2018-09-17T13:11:21.613Z,24.30
2018-09-17T13:16:24.862Z,24.30
2018-09-17T13:21:31.567Z,24.30
2018-09-17T13:26:34.752Z,24.50
2018-09-17T13:31:37.977Z,24.40
2018-09-17T13:36:41.410Z,24.50
2018-09-17T13:41:44.621Z,24.60
2018-09-17T13:46:47.863Z,24.50
2018-09-17T13:51:51.132Z,24.60
2018-09-17T13:56:54.361Z,24.80
2018-09-17T14:01:57.570Z,24.80
2018-09-17T14:07:00.841Z,24.80
2018-09-17T14:12:04.290Z,24.80
2018-09-17T14:17:07.517Z,24.90
2018-09-17T14:22:11.274Z,25.00
2018-09-17T14:27:14.630Z,25.00
2018-09-17T14:32:23.226Z,25.00
2018-09-17T14:37:26.521Z,25.00
2018-09-17T14:42:29.678Z,25.10
2018-09-17T14:47:32.906Z,25.00
2018-09-17T14:52:36.086Z,25.20
2018-09-17T14:57:39.259Z,25.30
2018-09-17T15:02:42.533Z,25.40
2018-09-17T15:07:46.158Z,25.30
2018-09-17T15:12:49.349Z,25.40
2018-09-17T15:17:53.710Z,25.40
2018-09-17T15:22:57.244Z,25.40
2018-09-17T15:28:01.144Z,25.40
2018-09-17T15:33:04.506Z,25.30
2018-09-17T15:38:09.280Z,25.30
2018-09-17T15:43:14.498Z,25.20
2018-09-17T15:48:18.503Z,25.20
2018-09-17T15:53:21.768Z,25.10
2018-09-17T15:58:25.572Z,24.90
2018-09-17T16:03:29.569Z,24.80
2018-09-17T16:08:32.780Z,24.80
2018-09-17T16:13:35.940Z,24.60
2018-09-17T16:18:39.162Z,24.50
2018-09-17T16:23:42.345Z,24.40
2018-09-17T16:28:46.617Z,24.30
2018-09-17T16:33:49.909Z,24.10
2018-09-17T16:38:53.090Z,24.00
2018-09-17T16:43:56.271Z,24.00
2018-09-17T16:48:59.534Z,23.70
2018-09-17T16:54:02.966Z,23.50
2018-09-17T16:59:06.257Z,23.20
2018-09-17T17:04:09.457Z,23.00
2018-09-17T17:09:12.709Z,22.70
2018-09-17T17:14:16.044Z,22.50
2018-09-17T17:19:19.275Z,22.20
2018-09-17T17:24:22.610Z,21.90
2018-09-17T17:29:26.834Z,21.50
2018-09-17T17:34:31.238Z,21.20
2018-09-17T17:39:37.213Z,20.90
2018-09-17T17:44:45.286Z,20.70
2018-09-17T17:49:48.593Z,20.50
2018-09-17T17:54:57.005Z,20.30
2018-09-17T18:00:00.249Z,20.10
2018-09-17T18:05:03.551Z,20.00
2018-09-17T18:10:06.773Z,19.80
2018-09-17T18:15:10.139Z,19.70
2018-09-17T18:20:13.395Z,19.50
2018-09-17T18:25:16.706Z,19.40
2018-09-17T18:30:25.698Z,19.20
2018-09-17T18:35:28.910Z,19.20
2018-09-17T18:40:32.403Z,19.20
2018-09-17T18:45:38.907Z,19.10
2018-09-17T18:50:43.345Z,19.00
2018-09-17T18:55:47.614Z,18.90
2018-09-17T19:00:51.087Z,18.90
2018-09-17T19:05:54.443Z,18.80
2018-09-17T19:10:58.634Z,18.70
2018-09-17T19:16:02.509Z,18.70
2018-09-17T19:21:09.430Z,18.60
2018-09-17T19:26:12.547Z,18.50
2018-09-17T19:31:15.891Z,18.50
2018-09-17T19:36:19.241Z,18.40
2018-09-17T19:41:22.378Z,18.40
2018-09-17T19:46:25.612Z,18.30
2018-09-17T19:51:34.106Z,18.20
2018-09-17T19:56:37.342Z,18.00
2018-09-17T20:01:40.558Z,18.00
2018-09-17T20:06:43.819Z,17.90
2018-09-17T20:11:47.123Z,18.00
2018-09-17T20:16:50.297Z,17.90
2018-09-17T20:21:53.521Z,18.00
2018-09-17T20:26:56.722Z,18.10
2018-09-17T20:32:00.050Z,18.10
2018-09-17T20:37:03.263Z,18.10
2018-09-17T20:42:07.508Z,18.10
2018-09-17T20:47:10.714Z,18.00
2018-09-17T20:52:13.899Z,17.90
2018-09-17T20:57:17.643Z,17.80
2018-09-17T21:02:20.838Z,17.70
2018-09-17T21:07:27.890Z,17.60
2018-09-17T21:12:31.114Z,17.60
2018-09-17T21:17:34.189Z,17.50
2018-09-17T21:22:37.442Z,17.40
2018-09-17T21:27:40.618Z,17.30
2018-09-17T21:32:43.844Z,17.20
2018-09-17T21:37:47.022Z,17.20
2018-09-17T21:42:50.220Z,17.20
2018-09-17T21:47:53.377Z,17.10
2018-09-17T21:52:56.557Z,17.10
2018-09-17T21:57:59.754Z,17.00
2018-09-17T22:03:02.930Z,17.00
2018-09-17T22:08:06.116Z,16.80
2018-09-17T22:13:09.319Z,16.70
2018-09-17T22:18:13.577Z,16.50
2018-09-17T22:23:16.755Z,16.30
2018-09-17T22:28:20.513Z,16.20
2018-09-17T22:33:23.687Z,16.20
2018-09-17T22:38:27.061Z,16.30
2018-09-17T22:43:30.257Z,16.50
2018-09-17T22:48:33.434Z,16.70
2018-09-17T22:53:36.680Z,16.90
2018-09-17T22:58:41.881Z,17.00
2018-09-17T23:03:45.072Z,17.00
2018-09-17T23:08:48.233Z,17.00
2018-09-17T23:13:51.441Z,17.10
2018-09-17T23:18:54.633Z,17.00
2018-09-17T23:23:57.825Z,16.70
2018-09-17T23:29:02.045Z,16.60
2018-09-17T23:34:05.198Z,16.30
2018-09-17T23:39:09.739Z,16.10
2018-09-17T23:44:12.934Z,16.00
2018-09-17T23:49:16.134Z,15.90
2018-09-17T23:54:19.317Z,15.90
2018-09-17T23:59:22.493Z,15.70
